Wye Mills, MD

10:09 PM EST on December 21, 2014 (GMT -0500)
Tuckahoe Neck | Change Station
CLOSE
Current Station
Personal Weather Station
Location: Denton, MD
Elevation: 36 ft
Nearby Weather Stations

Elev 36 ft 38.83 °N, 75.91 °W | Updated 1 minute ago

Clear
Clear
29.1 °F
Feels Like 29 °F
N
0.0
Wind Variable Wind from WNW

Today
High -- | Low -- °F
--% Chance of Precip.
Yesterday
High -- | Low -- °F
Precip. -- in
7:18 AM 4:44 PM
New Moon, 0% visible
Pressure 30.38 in
Visibility 10.0 miles
Clouds Clear
Windchill 29 °F
Dew Point 25 °F
Humidity 86%
Rainfall 0.00 in
Snow Depth Not available.
UV 0 out of 12
Pollen .10 out of 12
Air Quality Not available.
Flu Activity Not available.
METAR KESN 220314Z AUTO 00000KT 10SM CLR 00/M03 A3038 RMK AO2 T10031034

More Conditions Fewer Conditions

Pressure 30.38 in
Visibility 10.0 miles
Clouds Clear
Windchill 29 °F
Dew Point 25 °F
Humidity 86%
Rainfall 0.00 in
Snow Depth Not available.
UV 0 out of 12
Pollen .10 out of 12
Air Quality Not available.
Flu Activity Not available.
METAR KESN 220314Z AUTO 00000KT 10SM CLR 00/M03 A3038 RMK AO2 T10031034

More Conditions Fewer Conditions

10-Day Weather Forecast

Almanac

Astronomy

Dec. 21, 2014 Rise Set
Actual Time
Civil Twilight
Nautical Twilight
Astronomical Twilight
Moon
Length of Visible Light
Length of Day
Tomorrow will be .
, % of the Moon is Illuminated

Today's Extremes

State Highs State Lows

Community

WunderPhotos

Upload Photos

1,779,528 photos uploaded!

WunderBlogs® & News

Nearby

Air Quality

  Air Quality AQ Index Pollutant
Not available.

Snow Depth

Station Depth Elevation

Earthquake Activity

City Distance Mag. Time & Date
Minimum magnitude displayed is 2.5.

Coastal Water Temperatures

Place Temperature

Nearby Weather Stations